sensor_id;sensor_type;location;lat;lon;timestamp;P1;durP1;ratioP1;P2;durP2;ratioP2
22005;SDS011;11167;46.988;15.470;2022-09-03T00:00:14;1.77;;;1.25;;
22005;SDS011;11167;46.988;15.470;2022-09-03T00:02:23;1.55;;;1.20;;
22005;SDS011;11167;46.988;15.470;2022-09-03T00:04:30;1.90;;;1.20;;
22005;SDS011;11167;46.988;15.470;2022-09-03T00:06:37;1.67;;;1.42;;
22005;SDS011;11167;46.988;15.470;2022-09-03T00:08:54;2.17;;;1.20;;
22005;SDS011;11167;46.988;15.470;2022-09-03T00:15:17;2.25;;;1.50;;
22005;SDS011;11167;46.988;15.470;2022-09-03T00:17:22;2.05;;;1.20;;
22005;SDS011;11167;46.988;15.470;2022-09-03T00:19:30;1.70;;;1.40;;
22005;SDS011;11167;46.988;15.470;2022-09-03T00:21:38;2.85;;;1.40;;
22005;SDS011;11167;46.988;15.470;2022-09-03T00:23:39;2.45;;;1.37;;
22005;SDS011;11167;46.988;15.470;2022-09-03T00:27:57;1.67;;;1.30;;
22005;SDS011;11167;46.988;15.470;2022-09-03T00:32:14;2.67;;;1.42;;
22005;SDS011;11167;46.988;15.470;2022-09-03T00:34:39;1.62;;;1.30;;
22005;SDS011;11167;46.988;15.470;2022-09-03T00:36:49;2.45;;;1.22;;
22005;SDS011;11167;46.988;15.470;2022-09-03T00:38:50;2.62;;;1.37;;
22005;SDS011;11167;46.988;15.470;2022-09-03T00:40:55;2.00;;;1.57;;
22005;SDS011;11167;46.988;15.470;2022-09-03T00:49:40;3.42;;;1.65;;
22005;SDS011;11167;46.988;15.470;2022-09-03T00:54:39;1.80;;;1.10;;
22005;SDS011;11167;46.988;15.470;2022-09-03T01:00:46;1.55;;;1.10;;
22005;SDS011;11167;46.988;15.470;2022-09-03T01:03:10;2.52;;;1.27;;
22005;SDS011;11167;46.988;15.470;2022-09-03T01:05:10;1.50;;;1.40;;
22005;SDS011;11167;46.988;15.470;2022-09-03T01:07:30;2.50;;;1.65;;
22005;SDS011;11167;46.988;15.470;2022-09-03T01:20:54;1.27;;;1.17;;
22005;SDS011;11167;46.988;15.470;2022-09-03T01:28:21;2.85;;;1.32;;
22005;SDS011;11167;46.988;15.470;2022-09-03T01:30:25;3.17;;;1.20;;
22005;SDS011;11167;46.988;15.470;2022-09-03T01:33:12;2.85;;;1.20;;
22005;SDS011;11167;46.988;15.470;2022-09-03T01:39:05;1.77;;;1.20;;
22005;SDS011;11167;46.988;15.470;2022-09-03T01:44:06;1.60;;;1.32;;
22005;SDS011;11167;46.988;15.470;2022-09-03T01:48:52;1.60;;;1.07;;
22005;SDS011;11167;46.988;15.470;2022-09-03T01:50:53;1.67;;;1.17;;
22005;SDS011;11167;46.988;15.470;2022-09-03T01:57:31;1.50;;;1.07;;
22005;SDS011;11167;46.988;15.470;2022-09-03T01:59:44;1.50;;;1.27;;
22005;SDS011;11167;46.988;15.470;2022-09-03T02:04:19;1.67;;;1.42;;
22005;SDS011;11167;46.988;15.470;2022-09-03T02:06:22;1.50;;;1.20;;
22005;SDS011;11167;46.988;15.470;2022-09-03T02:08:24;1.82;;;1.35;;
22005;SDS011;11167;46.988;15.470;2022-09-03T02:12:44;1.87;;;1.37;;
22005;SDS011;11167;46.988;15.470;2022-09-03T02:14:47;1.62;;;1.30;;
22005;SDS011;11167;46.988;15.470;2022-09-03T02:16:48;1.40;;;1.20;;
22005;SDS011;11167;46.988;15.470;2022-09-03T02:18:57;3.15;;;1.20;;
22005;SDS011;11167;46.988;15.470;2022-09-03T02:21:01;1.50;;;1.17;;
22005;SDS011;11167;46.988;15.470;2022-09-03T02:23:02;1.85;;;1.47;;
22005;SDS011;11167;46.988;15.470;2022-09-03T02:25:05;1.65;;;1.20;;
22005;SDS011;11167;46.988;15.470;2022-09-03T02:27:07;1.72;;;1.22;;
22005;SDS011;11167;46.988;15.470;2022-09-03T02:29:08;2.40;;;1.40;;
22005;SDS011;11167;46.988;15.470;2022-09-03T02:31:09;2.42;;;1.30;;
22005;SDS011;11167;46.988;15.470;2022-09-03T02:33:11;1.67;;;1.20;;
22005;SDS011;11167;46.988;15.470;2022-09-03T02:35:12;2.10;;;1.35;;
22005;SDS011;11167;46.988;15.470;2022-09-03T02:37:14;1.85;;;1.50;;
22005;SDS011;11167;46.988;15.470;2022-09-03T02:41:18;1.57;;;1.20;;
22005;SDS011;11167;46.988;15.470;2022-09-03T02:45:33;3.43;;;1.50;;
22005;SDS011;11167;46.988;15.470;2022-09-03T02:47:37;1.92;;;1.40;;
22005;SDS011;11167;46.988;15.470;2022-09-03T02:49:42;1.30;;;1.10;;
22005;SDS011;11167;46.988;15.470;2022-09-03T02:51:43;1.98;;;1.45;;
22005;SDS011;11167;46.988;15.470;2022-09-03T02:53:44;1.65;;;1.17;;
22005;SDS011;11167;46.988;15.470;2022-09-03T02:55:46;1.25;;;1.15;;
22005;SDS011;11167;46.988;15.470;2022-09-03T02:57:47;4.70;;;1.20;;
22005;SDS011;11167;46.988;15.470;2022-09-03T02:59:48;1.10;;;1.00;;
22005;SDS011;11167;46.988;15.470;2022-09-03T03:01:49;1.67;;;1.20;;
22005;SDS011;11167;46.988;15.470;2022-09-03T03:03:51;1.80;;;1.20;;
22005;SDS011;11167;46.988;15.470;2022-09-03T03:05:53;2.22;;;1.12;;
22005;SDS011;11167;46.988;15.470;2022-09-03T03:07:57;2.17;;;1.40;;
22005;SDS011;11167;46.988;15.470;2022-09-03T03:09:58;2.08;;;1.10;;
22005;SDS011;11167;46.988;15.470;2022-09-03T03:11:59;1.20;;;1.07;;
22005;SDS011;11167;46.988;15.470;2022-09-03T03:14:00;1.45;;;1.10;;
22005;SDS011;11167;46.988;15.470;2022-09-03T03:16:03;2.02;;;1.20;;
22005;SDS011;11167;46.988;15.470;2022-09-03T03:18:08;1.42;;;1.02;;
22005;SDS011;11167;46.988;15.470;2022-09-03T03:20:11;1.75;;;1.20;;
22005;SDS011;11167;46.988;15.470;2022-09-03T03:22:12;2.08;;;1.10;;
22005;SDS011;11167;46.988;15.470;2022-09-03T03:24:13;1.30;;;1.20;;
22005;SDS011;11167;46.988;15.470;2022-09-03T03:26:15;3.55;;;1.20;;
22005;SDS011;11167;46.988;15.470;2022-09-03T03:28:18;1.95;;;1.25;;
22005;SDS011;11167;46.988;15.470;2022-09-03T03:30:20;1.92;;;1.30;;
22005;SDS011;11167;46.988;15.470;2022-09-03T03:32:21;1.60;;;1.10;;
22005;SDS011;11167;46.988;15.470;2022-09-03T03:34:22;1.65;;;1.30;;
22005;SDS011;11167;46.988;15.470;2022-09-03T03:36:25;1.98;;;1.32;;
22005;SDS011;11167;46.988;15.470;2022-09-03T03:38:27;1.30;;;1.20;;
22005;SDS011;11167;46.988;15.470;2022-09-03T03:40:29;1.37;;;1.17;;
22005;SDS011;11167;46.988;15.470;2022-09-03T03:42:31;1.82;;;1.20;;
22005;SDS011;11167;46.988;15.470;2022-09-03T03:44:34;1.32;;;1.15;;
22005;SDS011;11167;46.988;15.470;2022-09-03T03:46:37;3.50;;;1.20;;
22005;SDS011;11167;46.988;15.470;2022-09-03T03:48:39;1.92;;;1.20;;
22005;SDS011;11167;46.988;15.470;2022-09-03T03:50:41;2.77;;;1.10;;
22005;SDS011;11167;46.988;15.470;2022-09-03T03:52:42;1.22;;;1.12;;
22005;SDS011;11167;46.988;15.470;2022-09-03T03:54:43;1.10;;;1.00;;
22005;SDS011;11167;46.988;15.470;2022-09-03T03:56:44;2.25;;;1.17;;
22005;SDS011;11167;46.988;15.470;2022-09-03T03:58:45;1.75;;;1.30;;
22005;SDS011;11167;46.988;15.470;2022-09-03T04:00:48;2.08;;;1.12;;
22005;SDS011;11167;46.988;15.470;2022-09-03T04:02:50;1.40;;;1.20;;
22005;SDS011;11167;46.988;15.470;2022-09-03T04:04:51;1.20;;;1.00;;
22005;SDS011;11167;46.988;15.470;2022-09-03T04:06:52;2.10;;;1.35;;
22005;SDS011;11167;46.988;15.470;2022-09-03T04:08:53;2.27;;;1.12;;
22005;SDS011;11167;46.988;15.470;2022-09-03T04:10:58;1.62;;;1.15;;
22005;SDS011;11167;46.988;15.470;2022-09-03T04:13:01;1.87;;;1.30;;
22005;SDS011;11167;46.988;15.470;2022-09-03T04:15:02;1.42;;;1.17;;
22005;SDS011;11167;46.988;15.470;2022-09-03T04:17:04;2.47;;;1.15;;
22005;SDS011;11167;46.988;15.470;2022-09-03T04:19:05;1.07;;;0.98;;
22005;SDS011;11167;46.988;15.470;2022-09-03T04:21:08;1.82;;;1.20;;
22005;SDS011;11167;46.988;15.470;2022-09-03T04:23:13;1.70;;;1.10;;
22005;SDS011;11167;46.988;15.470;2022-09-03T04:25:14;1.40;;;1.30;;
22005;SDS011;11167;46.988;15.470;2022-09-03T04:27:16;1.50;;;1.10;;
22005;SDS011;11167;46.988;15.470;2022-09-03T04:29:17;2.33;;;1.10;;
22005;SDS011;11167;46.988;15.470;2022-09-03T04:31:18;1.87;;;1.10;;
22005;SDS011;11167;46.988;15.470;2022-09-03T04:33:20;2.15;;;1.37;;
22005;SDS011;11167;46.988;15.470;2022-09-03T04:35:25;1.87;;;1.00;;
22005;SDS011;11167;46.988;15.470;2022-09-03T04:37:28;1.30;;;1.10;;
22005;SDS011;11167;46.988;15.470;2022-09-03T04:39:29;2.25;;;1.37;;
22005;SDS011;11167;46.988;15.470;2022-09-03T04:41:30;2.35;;;1.20;;
22005;SDS011;11167;46.988;15.470;2022-09-03T04:43:32;1.60;;;1.20;;
22005;SDS011;11167;46.988;15.470;2022-09-03T04:45:33;1.95;;;1.12;;
22005;SDS011;11167;46.988;15.470;2022-09-03T04:47:34;2.15;;;1.40;;
22005;SDS011;11167;46.988;15.470;2022-09-03T04:49:38;1.20;;;1.10;;
22005;SDS011;11167;46.988;15.470;2022-09-03T04:51:39;1.47;;;1.30;;
22005;SDS011;11167;46.988;15.470;2022-09-03T04:53:42;1.60;;;1.22;;
22005;SDS011;11167;46.988;15.470;2022-09-03T04:55:48;0.90;;;0.90;;
22005;SDS011;11167;46.988;15.470;2022-09-03T04:57:49;1.40;;;1.30;;
22005;SDS011;11167;46.988;15.470;2022-09-03T04:59:50;1.98;;;1.10;;
22005;SDS011;11167;46.988;15.470;2022-09-03T05:01:51;1.32;;;1.00;;
22005;SDS011;11167;46.988;15.470;2022-09-03T05:03:54;1.25;;;1.00;;
22005;SDS011;11167;46.988;15.470;2022-09-03T05:05:56;1.60;;;1.27;;
22005;SDS011;11167;46.988;15.470;2022-09-03T05:07:57;1.70;;;1.20;;
22005;SDS011;11167;46.988;15.470;2022-09-03T05:09:58;2.08;;;1.17;;
22005;SDS011;11167;46.988;15.470;2022-09-03T05:12:00;1.67;;;1.40;;
22005;SDS011;11167;46.988;15.470;2022-09-03T05:14:01;2.12;;;1.22;;
22005;SDS011;11167;46.988;15.470;2022-09-03T05:16:06;1.72;;;1.22;;
22005;SDS011;11167;46.988;15.470;2022-09-03T05:18:09;2.12;;;1.10;;
22005;SDS011;11167;46.988;15.470;2022-09-03T05:20:11;1.20;;;1.00;;
22005;SDS011;11167;46.988;15.470;2022-09-03T05:22:12;1.27;;;1.00;;
22005;SDS011;11167;46.988;15.470;2022-09-03T05:24:15;1.37;;;1.10;;
22005;SDS011;11167;46.988;15.470;2022-09-03T05:26:21;1.32;;;1.05;;
22005;SDS011;11167;46.988;15.470;2022-09-03T05:28:24;2.95;;;1.12;;
22005;SDS011;11167;46.988;15.470;2022-09-03T05:30:27;2.70;;;0.90;;
22005;SDS011;11167;46.988;15.470;2022-09-03T05:32:29;1.60;;;1.20;;
22005;SDS011;11167;46.988;15.470;2022-09-03T05:34:31;2.10;;;1.15;;
22005;SDS011;11167;46.988;15.470;2022-09-03T05:36:33;2.12;;;1.42;;
22005;SDS011;11167;46.988;15.470;2022-09-03T05:40:37;1.52;;;1.10;;
22005;SDS011;11167;46.988;15.470;2022-09-03T05:42:39;1.95;;;1.30;;
22005;SDS011;11167;46.988;15.470;2022-09-03T05:44:40;1.65;;;1.20;;
22005;SDS011;11167;46.988;15.470;2022-09-03T05:46:41;2.00;;;1.40;;
22005;SDS011;11167;46.988;15.470;2022-09-03T05:48:42;2.00;;;1.30;;
22005;SDS011;11167;46.988;15.470;2022-09-03T05:50:44;2.40;;;1.60;;
22005;SDS011;11167;46.988;15.470;2022-09-03T05:52:45;2.47;;;1.50;;
22005;SDS011;11167;46.988;15.470;2022-09-03T05:54:47;1.82;;;1.20;;
22005;SDS011;11167;46.988;15.470;2022-09-03T05:56:48;1.50;;;1.37;;
22005;SDS011;11167;46.988;15.470;2022-09-03T05:58:51;1.95;;;1.30;;
22005;SDS011;11167;46.988;15.470;2022-09-03T06:00:53;2.12;;;1.27;;
22005;SDS011;11167;46.988;15.470;2022-09-03T06:02:54;1.80;;;1.30;;
22005;SDS011;11167;46.988;15.470;2022-09-03T06:04:55;1.75;;;1.40;;
22005;SDS011;11167;46.988;15.470;2022-09-03T06:06:57;2.80;;;1.50;;
22005;SDS011;11167;46.988;15.470;2022-09-03T06:08:59;1.35;;;1.22;;
22005;SDS011;11167;46.988;15.470;2022-09-03T06:11:02;1.60;;;1.42;;
22005;SDS011;11167;46.988;15.470;2022-09-03T06:13:03;1.62;;;1.52;;
22005;SDS011;11167;46.988;15.470;2022-09-03T06:15:05;2.60;;;1.60;;
22005;SDS011;11167;46.988;15.470;2022-09-03T06:17:06;3.20;;;2.05;;
22005;SDS011;11167;46.988;15.470;2022-09-03T06:19:10;2.87;;;2.00;;
22005;SDS011;11167;46.988;15.470;2022-09-03T06:21:12;4.60;;;2.33;;
22005;SDS011;11167;46.988;15.470;2022-09-03T06:23:14;2.70;;;1.92;;
22005;SDS011;11167;46.988;15.470;2022-09-03T06:25:15;3.15;;;2.15;;
22005;SDS011;11167;46.988;15.470;2022-09-03T06:27:16;3.20;;;1.95;;
22005;SDS011;11167;46.988;15.470;2022-09-03T06:29:19;2.87;;;1.80;;
22005;SDS011;11167;46.988;15.470;2022-09-03T06:31:21;3.80;;;1.87;;
22005;SDS011;11167;46.988;15.470;2022-09-03T06:33:22;2.17;;;1.98;;
22005;SDS011;11167;46.988;15.470;2022-09-03T06:35:24;2.08;;;1.72;;
22005;SDS011;11167;46.988;15.470;2022-09-03T06:37:25;2.22;;;1.57;;
22005;SDS011;11167;46.988;15.470;2022-09-03T06:39:26;2.55;;;1.90;;
22005;SDS011;11167;46.988;15.470;2022-09-03T06:41:29;2.47;;;2.02;;
22005;SDS011;11167;46.988;15.470;2022-09-03T06:43:33;1.90;;;1.70;;
22005;SDS011;11167;46.988;15.470;2022-09-03T06:45:37;2.42;;;1.62;;
22005;SDS011;11167;46.988;15.470;2022-09-03T06:47:38;1.92;;;1.72;;
22005;SDS011;11167;46.988;15.470;2022-09-03T06:49:39;3.37;;;1.55;;
22005;SDS011;11167;46.988;15.470;2022-09-03T06:51:40;2.02;;;1.60;;
22005;SDS011;11167;46.988;15.470;2022-09-03T06:53:44;2.80;;;1.60;;
22005;SDS011;11167;46.988;15.470;2022-09-03T06:55:56;2.08;;;1.57;;
22005;SDS011;11167;46.988;15.470;2022-09-03T06:58:00;2.10;;;1.82;;
22005;SDS011;11167;46.988;15.470;2022-09-03T07:00:01;2.05;;;1.75;;
22005;SDS011;11167;46.988;15.470;2022-09-03T07:02:04;1.70;;;1.47;;
22005;SDS011;11167;46.988;15.470;2022-09-03T07:04:07;2.72;;;1.67;;
22005;SDS011;11167;46.988;15.470;2022-09-03T07:06:14;2.77;;;1.65;;
22005;SDS011;11167;46.988;15.470;2022-09-03T07:08:16;2.02;;;1.75;;
22005;SDS011;11167;46.988;15.470;2022-09-03T07:10:17;3.02;;;1.60;;
22005;SDS011;11167;46.988;15.470;2022-09-03T07:12:20;2.37;;;1.62;;
22005;SDS011;11167;46.988;15.470;2022-09-03T07:14:21;2.92;;;1.85;;
22005;SDS011;11167;46.988;15.470;2022-09-03T07:16:23;3.05;;;1.50;;
22005;SDS011;11167;46.988;15.470;2022-09-03T07:18:29;2.10;;;1.72;;
22005;SDS011;11167;46.988;15.470;2022-09-03T07:20:33;2.22;;;1.90;;
22005;SDS011;11167;46.988;15.470;2022-09-03T07:24:37;2.42;;;1.60;;
22005;SDS011;11167;46.988;15.470;2022-09-03T07:26:39;2.47;;;1.60;;
22005;SDS011;11167;46.988;15.470;2022-09-03T07:28:43;2.70;;;1.90;;
22005;SDS011;11167;46.988;15.470;2022-09-03T07:30:45;2.45;;;1.90;;
22005;SDS011;11167;46.988;15.470;2022-09-03T07:32:46;2.70;;;1.85;;
22005;SDS011;11167;46.988;15.470;2022-09-03T07:34:49;1.92;;;1.70;;
22005;SDS011;11167;46.988;15.470;2022-09-03T07:36:52;2.15;;;1.70;;
22005;SDS011;11167;46.988;15.470;2022-09-03T07:38:54;2.40;;;1.60;;
22005;SDS011;11167;46.988;15.470;2022-09-03T07:41:00;2.20;;;1.73;;
22005;SDS011;11167;46.988;15.470;2022-09-03T07:43:03;5.22;;;1.80;;
22005;SDS011;11167;46.988;15.470;2022-09-03T07:45:05;2.15;;;1.62;;
22005;SDS011;11167;46.988;15.470;2022-09-03T07:47:09;4.58;;;1.52;;
22005;SDS011;11167;46.988;15.470;2022-09-03T07:49:10;1.90;;;1.52;;
22005;SDS011;11167;46.988;15.470;2022-09-03T07:51:12;2.00;;;1.50;;
22005;SDS011;11167;46.988;15.470;2022-09-03T07:53:14;2.80;;;1.80;;
22005;SDS011;11167;46.988;15.470;2022-09-03T07:55:19;2.20;;;1.70;;
22005;SDS011;11167;46.988;15.470;2022-09-03T07:57:20;2.02;;;1.55;;
22005;SDS011;11167;46.988;15.470;2022-09-03T07:59:21;1.45;;;1.20;;
22005;SDS011;11167;46.988;15.470;2022-09-03T08:01:24;1.77;;;1.27;;
22005;SDS011;11167;46.988;15.470;2022-09-03T08:03:28;2.47;;;1.77;;
22005;SDS011;11167;46.988;15.470;2022-09-03T08:05:31;1.90;;;1.50;;
22005;SDS011;11167;46.988;15.470;2022-09-03T08:07:32;1.72;;;1.40;;
22005;SDS011;11167;46.988;15.470;2022-09-03T08:09:34;2.12;;;1.67;;
22005;SDS011;11167;46.988;15.470;2022-09-03T08:11:35;2.55;;;1.55;;
22005;SDS011;11167;46.988;15.470;2022-09-03T08:13:43;2.22;;;1.65;;
22005;SDS011;11167;46.988;15.470;2022-09-03T08:15:52;2.52;;;1.77;;
22005;SDS011;11167;46.988;15.470;2022-09-03T08:17:54;2.25;;;1.60;;
22005;SDS011;11167;46.988;15.470;2022-09-03T08:19:55;3.30;;;1.57;;
22005;SDS011;11167;46.988;15.470;2022-09-03T08:21:59;2.30;;;1.90;;
22005;SDS011;11167;46.988;15.470;2022-09-03T08:24:00;1.77;;;1.50;;
22005;SDS011;11167;46.988;15.470;2022-09-03T08:26:02;1.95;;;1.62;;
22005;SDS011;11167;46.988;15.470;2022-09-03T08:28:03;2.25;;;1.55;;
22005;SDS011;11167;46.988;15.470;2022-09-03T08:30:05;1.98;;;1.50;;
22005;SDS011;11167;46.988;15.470;2022-09-03T08:32:09;2.65;;;1.75;;
22005;SDS011;11167;46.988;15.470;2022-09-03T08:34:10;2.20;;;1.52;;
22005;SDS011;11167;46.988;15.470;2022-09-03T08:36:13;2.00;;;1.60;;
22005;SDS011;11167;46.988;15.470;2022-09-03T08:38:16;1.80;;;1.70;;
22005;SDS011;11167;46.988;15.470;2022-09-03T08:40:18;1.90;;;1.70;;
22005;SDS011;11167;46.988;15.470;2022-09-03T08:42:27;1.60;;;1.50;;
22005;SDS011;11167;46.988;15.470;2022-09-03T08:46:55;1.95;;;1.75;;
22005;SDS011;11167;46.988;15.470;2022-09-03T08:48:58;2.42;;;1.55;;
22005;SDS011;11167;46.988;15.470;2022-09-03T08:51:01;1.70;;;1.60;;
22005;SDS011;11167;46.988;15.470;2022-09-03T08:57:41;2.40;;;1.70;;
22005;SDS011;11167;46.988;15.470;2022-09-03T08:59:48;2.87;;;1.50;;
22005;SDS011;11167;46.988;15.470;2022-09-03T09:02:05;1.75;;;1.45;;
22005;SDS011;11167;46.988;15.470;2022-09-03T09:04:19;2.00;;;1.75;;
22005;SDS011;11167;46.988;15.470;2022-09-03T09:08:53;2.77;;;1.77;;
22005;SDS011;11167;46.988;15.470;2022-09-03T09:11:01;2.08;;;1.70;;
22005;SDS011;11167;46.988;15.470;2022-09-03T09:22:36;1.70;;;1.45;;
22005;SDS011;11167;46.988;15.470;2022-09-03T09:24:43;2.25;;;1.67;;
22005;SDS011;11167;46.988;15.470;2022-09-03T09:26:46;2.27;;;1.52;;
22005;SDS011;11167;46.988;15.470;2022-09-03T09:28:52;2.05;;;1.72;;
22005;SDS011;11167;46.988;15.470;2022-09-03T09:31:00;1.80;;;1.70;;
22005;SDS011;11167;46.988;15.470;2022-09-03T09:35:07;1.87;;;1.67;;
22005;SDS011;11167;46.988;15.470;2022-09-03T09:37:13;1.60;;;1.50;;
22005;SDS011;11167;46.988;15.470;2022-09-03T09:39:19;2.00;;;1.80;;
22005;SDS011;11167;46.988;15.470;2022-09-03T09:41:21;2.62;;;1.70;;
22005;SDS011;11167;46.988;15.470;2022-09-03T09:43:24;1.62;;;1.52;;
22005;SDS011;11167;46.988;15.470;2022-09-03T09:45:25;2.20;;;1.50;;
22005;SDS011;11167;46.988;15.470;2022-09-03T09:47:27;2.60;;;1.75;;
22005;SDS011;11167;46.988;15.470;2022-09-03T09:49:37;2.20;;;1.62;;
22005;SDS011;11167;46.988;15.470;2022-09-03T09:51:58;1.87;;;1.70;;
22005;SDS011;11167;46.988;15.470;2022-09-03T09:54:16;1.77;;;1.67;;
22005;SDS011;11167;46.988;15.470;2022-09-03T09:56:23;2.65;;;1.70;;
22005;SDS011;11167;46.988;15.470;2022-09-03T09:58:25;1.67;;;1.50;;
22005;SDS011;11167;46.988;15.470;2022-09-03T10:00:30;2.58;;;1.77;;
22005;SDS011;11167;46.988;15.470;2022-09-03T10:02:33;1.72;;;1.60;;
22005;SDS011;11167;46.988;15.470;2022-09-03T10:04:36;1.80;;;1.60;;
22005;SDS011;11167;46.988;15.470;2022-09-03T10:06:39;1.60;;;1.50;;
22005;SDS011;11167;46.988;15.470;2022-09-03T10:11:16;2.05;;;1.50;;
22005;SDS011;11167;46.988;15.470;2022-09-03T10:13:29;1.67;;;1.50;;
22005;SDS011;11167;46.988;15.470;2022-09-03T10:15:41;1.57;;;1.45;;
22005;SDS011;11167;46.988;15.470;2022-09-03T10:17:54;1.80;;;1.60;;
22005;SDS011;11167;46.988;15.470;2022-09-03T10:20:03;1.80;;;1.60;;
22005;SDS011;11167;46.988;15.470;2022-09-03T10:22:32;2.35;;;1.60;;
22005;SDS011;11167;46.988;15.470;2022-09-03T10:26:59;2.02;;;1.40;;
22005;SDS011;11167;46.988;15.470;2022-09-03T10:29:02;2.58;;;1.72;;
22005;SDS011;11167;46.988;15.470;2022-09-03T10:31:10;1.70;;;1.60;;
22005;SDS011;11167;46.988;15.470;2022-09-03T10:33:32;2.62;;;1.80;;
22005;SDS011;11167;46.988;15.470;2022-09-03T10:35:43;1.98;;;1.75;;
22005;SDS011;11167;46.988;15.470;2022-09-03T10:51:40;1.60;;;1.50;;
22005;SDS011;11167;46.988;15.470;2022-09-03T11:00:45;2.08;;;1.47;;
22005;SDS011;11167;46.988;15.470;2022-09-03T11:05:20;1.35;;;1.25;;
22005;SDS011;11167;46.988;15.470;2022-09-03T11:07:24;1.50;;;1.40;;
22005;SDS011;11167;46.988;15.470;2022-09-03T11:09:30;2.35;;;1.57;;
22005;SDS011;11167;46.988;15.470;2022-09-03T11:11:37;1.80;;;1.47;;
22005;SDS011;11167;46.988;15.470;2022-09-03T11:14:02;1.60;;;1.50;;
22005;SDS011;11167;46.988;15.470;2022-09-03T11:16:09;2.05;;;1.60;;
22005;SDS011;11167;46.988;15.470;2022-09-03T11:18:30;1.72;;;1.50;;
22005;SDS011;11167;46.988;15.470;2022-09-03T11:20:38;1.60;;;1.42;;
22005;SDS011;11167;46.988;15.470;2022-09-03T11:22:43;2.40;;;1.57;;
22005;SDS011;11167;46.988;15.470;2022-09-03T11:24:48;1.47;;;1.37;;
22005;SDS011;11167;46.988;15.470;2022-09-03T11:26:56;1.77;;;1.60;;
22005;SDS011;11167;46.988;15.470;2022-09-03T11:33:26;1.67;;;1.57;;
22005;SDS011;11167;46.988;15.470;2022-09-03T11:37:45;2.70;;;1.60;;
22005;SDS011;11167;46.988;15.470;2022-09-03T11:39:57;1.72;;;1.40;;
22005;SDS011;11167;46.988;15.470;2022-09-03T11:42:03;1.50;;;1.30;;
22005;SDS011;11167;46.988;15.470;2022-09-03T11:44:16;1.75;;;1.60;;
22005;SDS011;11167;46.988;15.470;2022-09-03T11:48:36;2.20;;;1.55;;
22005;SDS011;11167;46.988;15.470;2022-09-03T11:50:38;2.47;;;1.70;;
22005;SDS011;11167;46.988;15.470;2022-09-03T11:52:39;1.90;;;1.70;;
22005;SDS011;11167;46.988;15.470;2022-09-03T11:54:42;2.42;;;1.62;;
22005;SDS011;11167;46.988;15.470;2022-09-03T11:56:45;1.75;;;1.50;;
22005;SDS011;11167;46.988;15.470;2022-09-03T12:01:14;1.90;;;1.70;;
22005;SDS011;11167;46.988;15.470;2022-09-03T12:03:20;1.70;;;1.57;;
22005;SDS011;11167;46.988;15.470;2022-09-03T12:10:07;3.00;;;1.57;;
22005;SDS011;11167;46.988;15.470;2022-09-03T12:12:37;1.50;;;1.40;;
22005;SDS011;11167;46.988;15.470;2022-09-03T12:17:31;1.57;;;1.40;;
22005;SDS011;11167;46.988;15.470;2022-09-03T12:19:55;1.90;;;1.47;;
22005;SDS011;11167;46.988;15.470;2022-09-03T12:24:03;1.55;;;1.40;;
22005;SDS011;11167;46.988;15.470;2022-09-03T12:26:12;1.72;;;1.57;;
22005;SDS011;11167;46.988;15.470;2022-09-03T12:28:17;1.52;;;1.42;;
22005;SDS011;11167;46.988;15.470;2022-09-03T12:30:22;1.75;;;1.65;;
22005;SDS011;11167;46.988;15.470;2022-09-03T12:32:30;2.70;;;1.70;;
22005;SDS011;11167;46.988;15.470;2022-09-03T12:34:31;1.90;;;1.70;;
22005;SDS011;11167;46.988;15.470;2022-09-03T12:36:37;3.70;;;1.70;;
22005;SDS011;11167;46.988;15.470;2022-09-03T12:38:43;1.65;;;1.50;;
22005;SDS011;11167;46.988;15.470;2022-09-03T12:40:46;1.67;;;1.57;;
22005;SDS011;11167;46.988;15.470;2022-09-03T12:42:48;1.65;;;1.55;;
22005;SDS011;11167;46.988;15.470;2022-09-03T12:44:51;1.95;;;1.62;;
22005;SDS011;11167;46.988;15.470;2022-09-03T12:49:13;2.00;;;1.80;;
22005;SDS011;11167;46.988;15.470;2022-09-03T12:51:15;2.47;;;1.87;;
22005;SDS011;11167;46.988;15.470;2022-09-03T12:53:20;2.17;;;1.70;;
22005;SDS011;11167;46.988;15.470;2022-09-03T12:57:59;1.47;;;1.37;;
22005;SDS011;11167;46.988;15.470;2022-09-03T12:59:45;1.57;;;1.47;;
22005;SDS011;11167;46.988;15.470;2022-09-03T13:01:50;1.92;;;1.60;;
22005;SDS011;11167;46.988;15.470;2022-09-03T13:06:09;3.50;;;1.55;;
22005;SDS011;11167;46.988;15.470;2022-09-03T13:08:23;1.67;;;1.40;;
22005;SDS011;11167;46.988;15.470;2022-09-03T13:10:27;1.70;;;1.50;;
22005;SDS011;11167;46.988;15.470;2022-09-03T13:12:40;1.50;;;1.40;;
22005;SDS011;11167;46.988;15.470;2022-09-03T13:14:48;1.65;;;1.30;;
22005;SDS011;11167;46.988;15.470;2022-09-03T13:22:10;1.30;;;1.20;;
22005;SDS011;11167;46.988;15.470;2022-09-03T13:24:45;1.40;;;1.30;;
22005;SDS011;11167;46.988;15.470;2022-09-03T13:34:29;2.02;;;1.50;;
22005;SDS011;11167;46.988;15.470;2022-09-03T13:38:59;1.65;;;1.55;;
22005;SDS011;11167;46.988;15.470;2022-09-03T13:43:40;1.57;;;1.47;;
22005;SDS011;11167;46.988;15.470;2022-09-03T13:45:49;1.37;;;1.27;;
22005;SDS011;11167;46.988;15.470;2022-09-03T13:48:01;1.95;;;1.50;;
22005;SDS011;11167;46.988;15.470;2022-09-03T13:50:28;1.60;;;1.50;;
22005;SDS011;11167;46.988;15.470;2022-09-03T13:52:37;1.52;;;1.42;;
22005;SDS011;11167;46.988;15.470;2022-09-03T13:54:43;1.57;;;1.30;;
22005;SDS011;11167;46.988;15.470;2022-09-03T13:59:15;1.98;;;1.20;;
22005;SDS011;11167;46.988;15.470;2022-09-03T14:01:20;2.85;;;1.30;;
22005;SDS011;11167;46.988;15.470;2022-09-03T14:03:34;1.67;;;1.20;;
22005;SDS011;11167;46.988;15.470;2022-09-03T14:08:22;1.52;;;1.42;;
22005;SDS011;11167;46.988;15.470;2022-09-03T14:20:57;1.32;;;1.22;;
22005;SDS011;11167;46.988;15.470;2022-09-03T14:22:36;1.40;;;1.30;;
22005;SDS011;11167;46.988;15.470;2022-09-03T14:27:01;3.37;;;1.67;;
22005;SDS011;11167;46.988;15.470;2022-09-03T14:31:28;1.72;;;1.60;;
22005;SDS011;11167;46.988;15.470;2022-09-03T14:33:38;1.75;;;1.60;;
22005;SDS011;11167;46.988;15.470;2022-09-03T14:35:47;1.75;;;1.60;;
22005;SDS011;11167;46.988;15.470;2022-09-03T14:40:29;1.50;;;1.40;;
22005;SDS011;11167;46.988;15.470;2022-09-03T14:51:54;1.40;;;1.30;;
22005;SDS011;11167;46.988;15.470;2022-09-03T14:54:10;1.50;;;1.40;;
22005;SDS011;11167;46.988;15.470;2022-09-03T14:56:19;1.95;;;1.75;;
22005;SDS011;11167;46.988;15.470;2022-09-03T14:58:47;1.60;;;1.30;;
22005;SDS011;11167;46.988;15.470;2022-09-03T15:07:41;2.00;;;1.60;;
22005;SDS011;11167;46.988;15.470;2022-09-03T15:09:57;1.50;;;1.40;;
22005;SDS011;11167;46.988;15.470;2022-09-03T15:12:02;1.57;;;1.47;;
22005;SDS011;11167;46.988;15.470;2022-09-03T15:14:16;1.50;;;1.40;;
22005;SDS011;11167;46.988;15.470;2022-09-03T15:20:49;1.82;;;1.50;;
22005;SDS011;11167;46.988;15.470;2022-09-03T15:25:40;1.57;;;1.47;;
22005;SDS011;11167;46.988;15.470;2022-09-03T15:34:47;1.30;;;1.20;;
22005;SDS011;11167;46.988;15.470;2022-09-03T15:36:53;1.57;;;1.40;;
22005;SDS011;11167;46.988;15.470;2022-09-03T15:41:09;1.98;;;1.57;;
22005;SDS011;11167;46.988;15.470;2022-09-03T15:47:48;1.50;;;1.40;;
22005;SDS011;11167;46.988;15.470;2022-09-03T15:49:57;1.65;;;1.40;;
22005;SDS011;11167;46.988;15.470;2022-09-03T15:56:51;2.05;;;1.35;;
22005;SDS011;11167;46.988;15.470;2022-09-03T16:11:43;1.37;;;1.27;;
22005;SDS011;11167;46.988;15.470;2022-09-03T16:15:50;1.30;;;1.20;;
22005;SDS011;11167;46.988;15.470;2022-09-03T16:22:47;1.30;;;1.20;;
22005;SDS011;11167;46.988;15.470;2022-09-03T16:27:08;1.35;;;1.25;;